sensor_id;sensor_type;location;lat;lon;timestamp;P1;durP1;ratioP1;P2;durP2;ratioP2
58384;SDS011;44185;47.844;8.966;2024-03-02T00:01:09;21.08;;;11.20;;
58384;SDS011;44185;47.844;8.966;2024-03-02T00:03:36;22.37;;;10.37;;
58384;SDS011;44185;47.844;8.966;2024-03-02T00:06:02;24.10;;;11.23;;
58384;SDS011;44185;47.844;8.966;2024-03-02T00:08:29;26.92;;;12.23;;
58384;SDS011;44185;47.844;8.966;2024-03-02T00:10:56;25.13;;;11.27;;
58384;SDS011;44185;47.844;8.966;2024-03-02T00:13:24;22.25;;;10.20;;
58384;SDS011;44185;47.844;8.966;2024-03-02T00:15:51;22.67;;;9.95;;
58384;SDS011;44185;47.844;8.966;2024-03-02T00:18:18;21.60;;;10.35;;
58384;SDS011;44185;47.844;8.966;2024-03-02T00:20:46;27.63;;;9.80;;
58384;SDS011;44185;47.844;8.966;2024-03-02T00:23:14;23.02;;;9.77;;
58384;SDS011;44185;47.844;8.966;2024-03-02T00:25:41;21.63;;;11.05;;
58384;SDS011;44185;47.844;8.966;2024-03-02T00:28:14;22.10;;;10.65;;
58384;SDS011;44185;47.844;8.966;2024-03-02T00:33:31;18.50;;;8.90;;
58384;SDS011;44185;47.844;8.966;2024-03-02T00:35:58;18.25;;;9.70;;
58384;SDS011;44185;47.844;8.966;2024-03-02T00:38:23;18.40;;;9.35;;
58384;SDS011;44185;47.844;8.966;2024-03-02T00:40:49;18.98;;;8.55;;
58384;SDS011;44185;47.844;8.966;2024-03-02T00:43:34;17.40;;;8.07;;
58384;SDS011;44185;47.844;8.966;2024-03-02T00:46:07;18.23;;;8.43;;
58384;SDS011;44185;47.844;8.966;2024-03-02T00:48:33;18.23;;;8.27;;
58384;SDS011;44185;47.844;8.966;2024-03-02T00:50:58;16.63;;;7.28;;
58384;SDS011;44185;47.844;8.966;2024-03-02T00:53:24;18.67;;;8.57;;
58384;SDS011;44185;47.844;8.966;2024-03-02T00:55:51;20.00;;;9.00;;
58384;SDS011;44185;47.844;8.966;2024-03-02T00:58:17;22.65;;;10.15;;
58384;SDS011;44185;47.844;8.966;2024-03-02T01:00:43;19.48;;;9.77;;
58384;SDS011;44185;47.844;8.966;2024-03-02T01:03:09;20.65;;;9.90;;
58384;SDS011;44185;47.844;8.966;2024-03-02T01:05:35;16.67;;;8.85;;
58384;SDS011;44185;47.844;8.966;2024-03-02T01:08:00;17.60;;;8.57;;
58384;SDS011;44185;47.844;8.966;2024-03-02T01:10:26;15.52;;;8.23;;
58384;SDS011;44185;47.844;8.966;2024-03-02T01:12:51;17.85;;;8.77;;
58384;SDS011;44185;47.844;8.966;2024-03-02T01:15:17;18.15;;;8.57;;
58384;SDS011;44185;47.844;8.966;2024-03-02T01:17:42;17.35;;;8.57;;
58384;SDS011;44185;47.844;8.966;2024-03-02T01:20:10;17.17;;;8.10;;
58384;SDS011;44185;47.844;8.966;2024-03-02T01:22:36;17.90;;;8.10;;
58384;SDS011;44185;47.844;8.966;2024-03-02T01:25:01;17.60;;;8.05;;
58384;SDS011;44185;47.844;8.966;2024-03-02T01:27:27;17.17;;;8.00;;
58384;SDS011;44185;47.844;8.966;2024-03-02T01:29:52;16.60;;;7.93;;
58384;SDS011;44185;47.844;8.966;2024-03-02T01:32:17;15.82;;;7.60;;
58384;SDS011;44185;47.844;8.966;2024-03-02T01:34:43;17.30;;;7.68;;
58384;SDS011;44185;47.844;8.966;2024-03-02T01:37:10;15.45;;;7.35;;
58384;SDS011;44185;47.844;8.966;2024-03-02T01:39:35;15.35;;;7.15;;
58384;SDS011;44185;47.844;8.966;2024-03-02T01:42:01;15.68;;;7.05;;
58384;SDS011;44185;47.844;8.966;2024-03-02T01:44:27;14.45;;;7.45;;
58384;SDS011;44185;47.844;8.966;2024-03-02T01:46:52;17.73;;;8.65;;
58384;SDS011;44185;47.844;8.966;2024-03-02T01:49:18;24.98;;;12.73;;
58384;SDS011;44185;47.844;8.966;2024-03-02T01:51:43;21.92;;;10.85;;
58384;SDS011;44185;47.844;8.966;2024-03-02T01:54:10;18.92;;;8.95;;
58384;SDS011;44185;47.844;8.966;2024-03-02T01:56:35;19.58;;;10.27;;
58384;SDS011;44185;47.844;8.966;2024-03-02T01:59:01;19.17;;;9.60;;
58384;SDS011;44185;47.844;8.966;2024-03-02T02:01:27;19.60;;;10.50;;
58384;SDS011;44185;47.844;8.966;2024-03-02T02:03:52;18.75;;;8.18;;
58384;SDS011;44185;47.844;8.966;2024-03-02T02:06:18;17.70;;;8.73;;
58384;SDS011;44185;47.844;8.966;2024-03-02T02:08:43;17.80;;;8.07;;
58384;SDS011;44185;47.844;8.966;2024-03-02T02:11:10;16.50;;;7.18;;
58384;SDS011;44185;47.844;8.966;2024-03-02T02:13:36;16.10;;;7.90;;
58384;SDS011;44185;47.844;8.966;2024-03-02T02:16:05;17.05;;;7.80;;
58384;SDS011;44185;47.844;8.966;2024-03-02T02:18:31;15.68;;;8.05;;
58384;SDS011;44185;47.844;8.966;2024-03-02T02:20:57;17.13;;;8.93;;
58384;SDS011;44185;47.844;8.966;2024-03-02T02:23:23;15.63;;;7.85;;
58384;SDS011;44185;47.844;8.966;2024-03-02T02:25:49;16.60;;;7.70;;
58384;SDS011;44185;47.844;8.966;2024-03-02T02:28:14;17.92;;;8.27;;
58384;SDS011;44185;47.844;8.966;2024-03-02T02:30:40;20.23;;;8.05;;
58384;SDS011;44185;47.844;8.966;2024-03-02T02:33:05;18.70;;;7.90;;
58384;SDS011;44185;47.844;8.966;2024-03-02T02:35:31;16.30;;;8.10;;
58384;SDS011;44185;47.844;8.966;2024-03-02T02:37:57;16.58;;;7.55;;
58384;SDS011;44185;47.844;8.966;2024-03-02T02:40:24;17.45;;;8.13;;
58384;SDS011;44185;47.844;8.966;2024-03-02T02:42:50;18.42;;;7.55;;
58384;SDS011;44185;47.844;8.966;2024-03-02T02:45:16;15.85;;;7.20;;
58384;SDS011;44185;47.844;8.966;2024-03-02T02:47:42;21.02;;;8.30;;
58384;SDS011;44185;47.844;8.966;2024-03-02T02:50:08;19.15;;;8.60;;
58384;SDS011;44185;47.844;8.966;2024-03-02T02:52:35;26.08;;;7.68;;
58384;SDS011;44185;47.844;8.966;2024-03-02T02:55:03;17.90;;;7.82;;
58384;SDS011;44185;47.844;8.966;2024-03-02T02:57:30;29.40;;;8.85;;
58384;SDS011;44185;47.844;8.966;2024-03-02T02:59:55;21.15;;;8.05;;
58384;SDS011;44185;47.844;8.966;2024-03-02T03:02:20;21.25;;;7.35;;
58384;SDS011;44185;47.844;8.966;2024-03-02T03:04:46;18.63;;;7.80;;
58384;SDS011;44185;47.844;8.966;2024-03-02T03:07:12;17.23;;;7.30;;
58384;SDS011;44185;47.844;8.966;2024-03-02T03:09:37;23.20;;;7.45;;
58384;SDS011;44185;47.844;8.966;2024-03-02T03:12:03;28.42;;;7.93;;
58384;SDS011;44185;47.844;8.966;2024-03-02T03:14:30;20.80;;;8.55;;
58384;SDS011;44185;47.844;8.966;2024-03-02T03:16:55;23.98;;;8.57;;
58384;SDS011;44185;47.844;8.966;2024-03-02T03:19:21;20.55;;;8.32;;
58384;SDS011;44185;47.844;8.966;2024-03-02T03:21:46;21.23;;;8.15;;
58384;SDS011;44185;47.844;8.966;2024-03-02T03:24:12;27.13;;;9.20;;
58384;SDS011;44185;47.844;8.966;2024-03-02T03:26:37;19.58;;;8.73;;
58384;SDS011;44185;47.844;8.966;2024-03-02T03:29:02;22.55;;;8.57;;
58384;SDS011;44185;47.844;8.966;2024-03-02T03:31:29;23.02;;;8.65;;
58384;SDS011;44185;47.844;8.966;2024-03-02T03:33:55;25.33;;;9.38;;
58384;SDS011;44185;47.844;8.966;2024-03-02T03:36:20;25.65;;;9.65;;
58384;SDS011;44185;47.844;8.966;2024-03-02T03:38:45;22.58;;;9.23;;
58384;SDS011;44185;47.844;8.966;2024-03-02T03:41:11;26.15;;;8.40;;
58384;SDS011;44185;47.844;8.966;2024-03-02T03:43:36;28.52;;;8.85;;
58384;SDS011;44185;47.844;8.966;2024-03-02T03:46:02;31.60;;;9.00;;
58384;SDS011;44185;47.844;8.966;2024-03-02T03:48:29;20.13;;;8.68;;
58384;SDS011;44185;47.844;8.966;2024-03-02T03:50:54;27.33;;;8.80;;
58384;SDS011;44185;47.844;8.966;2024-03-02T03:53:20;26.70;;;9.63;;
58384;SDS011;44185;47.844;8.966;2024-03-02T03:55:45;22.75;;;8.85;;
58384;SDS011;44185;47.844;8.966;2024-03-02T03:58:10;48.03;;;9.43;;
58384;SDS011;44185;47.844;8.966;2024-03-02T04:00:36;26.77;;;9.60;;
58384;SDS011;44185;47.844;8.966;2024-03-02T04:03:01;42.08;;;8.63;;
58384;SDS011;44185;47.844;8.966;2024-03-02T04:05:28;21.83;;;9.52;;
58384;SDS011;44185;47.844;8.966;2024-03-02T04:07:54;32.60;;;9.05;;
58384;SDS011;44185;47.844;8.966;2024-03-02T04:10:19;24.33;;;8.88;;
58384;SDS011;44185;47.844;8.966;2024-03-02T04:12:44;27.90;;;8.55;;
58384;SDS011;44185;47.844;8.966;2024-03-02T04:15:10;19.90;;;8.25;;
58384;SDS011;44185;47.844;8.966;2024-03-02T04:17:35;25.85;;;8.77;;
58384;SDS011;44185;47.844;8.966;2024-03-02T04:20:01;19.83;;;8.48;;
58384;SDS011;44185;47.844;8.966;2024-03-02T04:22:28;23.20;;;8.27;;
58384;SDS011;44185;47.844;8.966;2024-03-02T04:24:53;25.92;;;8.48;;
58384;SDS011;44185;47.844;8.966;2024-03-02T04:27:19;24.05;;;8.27;;
58384;SDS011;44185;47.844;8.966;2024-03-02T04:29:44;22.50;;;9.10;;
58384;SDS011;44185;47.844;8.966;2024-03-02T04:32:10;20.67;;;7.82;;
58384;SDS011;44185;47.844;8.966;2024-03-02T04:34:35;19.98;;;7.78;;
58384;SDS011;44185;47.844;8.966;2024-03-02T04:37:01;22.40;;;8.63;;
58384;SDS011;44185;47.844;8.966;2024-03-02T04:39:28;20.73;;;9.85;;
58384;SDS011;44185;47.844;8.966;2024-03-02T04:41:53;24.30;;;8.32;;
58384;SDS011;44185;47.844;8.966;2024-03-02T04:44:19;25.92;;;9.82;;
58384;SDS011;44185;47.844;8.966;2024-03-02T04:46:44;22.88;;;8.40;;
58384;SDS011;44185;47.844;8.966;2024-03-02T04:49:10;26.15;;;8.93;;
58384;SDS011;44185;47.844;8.966;2024-03-02T04:51:35;27.23;;;9.75;;
58384;SDS011;44185;47.844;8.966;2024-03-02T04:54:00;22.02;;;9.13;;
58384;SDS011;44185;47.844;8.966;2024-03-02T04:56:27;21.05;;;7.85;;
58384;SDS011;44185;47.844;8.966;2024-03-02T04:58:53;25.77;;;9.23;;
58384;SDS011;44185;47.844;8.966;2024-03-02T05:01:18;41.53;;;9.10;;
58384;SDS011;44185;47.844;8.966;2024-03-02T05:03:44;22.98;;;9.57;;
58384;SDS011;44185;47.844;8.966;2024-03-02T05:06:09;24.05;;;9.40;;
58384;SDS011;44185;47.844;8.966;2024-03-02T05:08:34;50.90;;;9.90;;
58384;SDS011;44185;47.844;8.966;2024-03-02T05:11:00;33.88;;;8.55;;
58384;SDS011;44185;47.844;8.966;2024-03-02T05:13:27;49.65;;;10.85;;
58384;SDS011;44185;47.844;8.966;2024-03-02T05:15:52;49.22;;;9.55;;
58384;SDS011;44185;47.844;8.966;2024-03-02T05:18:17;47.63;;;9.85;;
58384;SDS011;44185;47.844;8.966;2024-03-02T05:20:43;29.73;;;9.48;;
58384;SDS011;44185;47.844;8.966;2024-03-02T05:23:08;34.92;;;8.98;;
58384;SDS011;44185;47.844;8.966;2024-03-02T05:25:34;26.30;;;8.45;;
58384;SDS011;44185;47.844;8.966;2024-03-02T05:27:59;48.38;;;9.45;;
58384;SDS011;44185;47.844;8.966;2024-03-02T05:30:26;29.00;;;8.93;;
58384;SDS011;44185;47.844;8.966;2024-03-02T05:32:51;53.05;;;9.90;;
58384;SDS011;44185;47.844;8.966;2024-03-02T05:35:17;41.72;;;9.40;;
58384;SDS011;44185;47.844;8.966;2024-03-02T05:37:42;39.20;;;9.95;;
58384;SDS011;44185;47.844;8.966;2024-03-02T05:40:08;29.95;;;9.63;;
58384;SDS011;44185;47.844;8.966;2024-03-02T05:42:34;33.88;;;9.70;;
58384;SDS011;44185;47.844;8.966;2024-03-02T05:44:59;26.23;;;8.75;;
58384;SDS011;44185;47.844;8.966;2024-03-02T05:47:26;30.38;;;10.10;;
58384;SDS011;44185;47.844;8.966;2024-03-02T05:49:51;41.08;;;10.95;;
58384;SDS011;44185;47.844;8.966;2024-03-02T05:52:17;33.63;;;9.80;;
58384;SDS011;44185;47.844;8.966;2024-03-02T05:54:42;42.45;;;10.27;;
58384;SDS011;44185;47.844;8.966;2024-03-02T05:57:07;29.20;;;9.20;;
58384;SDS011;44185;47.844;8.966;2024-03-02T05:59:33;31.70;;;9.18;;
58384;SDS011;44185;47.844;8.966;2024-03-02T06:01:58;28.00;;;9.30;;
58384;SDS011;44185;47.844;8.966;2024-03-02T06:04:25;19.77;;;8.65;;
58384;SDS011;44185;47.844;8.966;2024-03-02T06:06:50;20.60;;;8.50;;
58384;SDS011;44185;47.844;8.966;2024-03-02T06:09:16;18.70;;;8.25;;
58384;SDS011;44185;47.844;8.966;2024-03-02T06:11:42;18.20;;;7.75;;
58384;SDS011;44185;47.844;8.966;2024-03-02T06:14:08;23.77;;;9.15;;
58384;SDS011;44185;47.844;8.966;2024-03-02T06:16:34;24.30;;;8.63;;
58384;SDS011;44185;47.844;8.966;2024-03-02T06:18:59;24.63;;;9.50;;
58384;SDS011;44185;47.844;8.966;2024-03-02T06:21:27;21.63;;;8.43;;
58384;SDS011;44185;47.844;8.966;2024-03-02T06:23:52;29.85;;;9.65;;
58384;SDS011;44185;47.844;8.966;2024-03-02T06:26:18;22.45;;;9.85;;
58384;SDS011;44185;47.844;8.966;2024-03-02T06:28:43;24.52;;;9.85;;
58384;SDS011;44185;47.844;8.966;2024-03-02T06:31:09;24.92;;;9.20;;
58384;SDS011;44185;47.844;8.966;2024-03-02T06:33:35;41.30;;;10.18;;
58384;SDS011;44185;47.844;8.966;2024-03-02T06:36:00;35.67;;;11.70;;
58384;SDS011;44185;47.844;8.966;2024-03-02T06:38:28;43.88;;;12.93;;
58384;SDS011;44185;47.844;8.966;2024-03-02T06:40:53;27.48;;;10.15;;
58384;SDS011;44185;47.844;8.966;2024-03-02T06:43:19;25.95;;;9.70;;
58384;SDS011;44185;47.844;8.966;2024-03-02T06:45:44;23.42;;;8.93;;
58384;SDS011;44185;47.844;8.966;2024-03-02T06:48:10;23.08;;;8.48;;
58384;SDS011;44185;47.844;8.966;2024-03-02T06:50:35;20.38;;;8.50;;
58384;SDS011;44185;47.844;8.966;2024-03-02T06:53:01;23.38;;;8.88;;
58384;SDS011;44185;47.844;8.966;2024-03-02T06:55:27;22.67;;;9.32;;
58384;SDS011;44185;47.844;8.966;2024-03-02T06:57:53;18.40;;;8.82;;
58384;SDS011;44185;47.844;8.966;2024-03-02T07:00:18;20.35;;;9.05;;
58384;SDS011;44185;47.844;8.966;2024-03-02T07:02:44;17.75;;;8.10;;
58384;SDS011;44185;47.844;8.966;2024-03-02T07:05:10;19.73;;;8.18;;
58384;SDS011;44185;47.844;8.966;2024-03-02T07:07:35;17.05;;;7.32;;
58384;SDS011;44185;47.844;8.966;2024-03-02T07:10:01;18.60;;;8.45;;
58384;SDS011;44185;47.844;8.966;2024-03-02T07:12:28;20.02;;;8.88;;
58384;SDS011;44185;47.844;8.966;2024-03-02T07:14:53;22.98;;;7.88;;
58384;SDS011;44185;47.844;8.966;2024-03-02T07:17:19;31.23;;;9.20;;
58384;SDS011;44185;47.844;8.966;2024-03-02T07:19:44;31.85;;;8.82;;
58384;SDS011;44185;47.844;8.966;2024-03-02T07:22:10;22.67;;;8.05;;
58384;SDS011;44185;47.844;8.966;2024-03-02T07:24:39;23.55;;;8.57;;
58384;SDS011;44185;47.844;8.966;2024-03-02T07:27:04;40.95;;;8.65;;
58384;SDS011;44185;47.844;8.966;2024-03-02T07:29:31;23.85;;;8.60;;
58384;SDS011;44185;47.844;8.966;2024-03-02T07:31:57;22.10;;;10.25;;
58384;SDS011;44185;47.844;8.966;2024-03-02T07:34:22;18.52;;;7.88;;
58384;SDS011;44185;47.844;8.966;2024-03-02T07:36:47;29.63;;;8.98;;
58384;SDS011;44185;47.844;8.966;2024-03-02T07:39:13;38.60;;;9.35;;
58384;SDS011;44185;47.844;8.966;2024-03-02T07:41:38;20.13;;;7.82;;
58384;SDS011;44185;47.844;8.966;2024-03-02T07:44:04;17.02;;;7.20;;
58384;SDS011;44185;47.844;8.966;2024-03-02T07:46:31;23.40;;;7.90;;
58384;SDS011;44185;47.844;8.966;2024-03-02T07:48:57;26.58;;;9.40;;
58384;SDS011;44185;47.844;8.966;2024-03-02T07:51:22;28.40;;;8.60;;
58384;SDS011;44185;47.844;8.966;2024-03-02T07:53:48;18.15;;;8.32;;
58384;SDS011;44185;47.844;8.966;2024-03-02T07:56:13;32.17;;;8.95;;
58384;SDS011;44185;47.844;8.966;2024-03-02T07:58:38;21.38;;;8.75;;
58384;SDS011;44185;47.844;8.966;2024-03-02T08:01:04;23.05;;;9.25;;
58384;SDS011;44185;47.844;8.966;2024-03-02T08:03:31;16.00;;;7.97;;
58384;SDS011;44185;47.844;8.966;2024-03-02T08:05:57;20.02;;;8.15;;
58384;SDS011;44185;47.844;8.966;2024-03-02T08:08:22;27.48;;;8.35;;
58384;SDS011;44185;47.844;8.966;2024-03-02T08:10:48;19.35;;;8.52;;
58384;SDS011;44185;47.844;8.966;2024-03-02T08:13:13;19.05;;;8.05;;
58384;SDS011;44185;47.844;8.966;2024-03-02T08:15:38;21.30;;;7.75;;
58384;SDS011;44185;47.844;8.966;2024-03-02T08:18:04;18.38;;;8.20;;
58384;SDS011;44185;47.844;8.966;2024-03-02T08:20:31;19.88;;;7.88;;
58384;SDS011;44185;47.844;8.966;2024-03-02T08:22:57;18.80;;;8.93;;
58384;SDS011;44185;47.844;8.966;2024-03-02T08:25:22;18.02;;;7.43;;
58384;SDS011;44185;47.844;8.966;2024-03-02T08:27:48;18.13;;;7.57;;
58384;SDS011;44185;47.844;8.966;2024-03-02T08:30:13;16.33;;;6.95;;
58384;SDS011;44185;47.844;8.966;2024-03-02T08:32:39;16.02;;;7.75;;
58384;SDS011;44185;47.844;8.966;2024-03-02T08:35:05;14.70;;;6.45;;
58384;SDS011;44185;47.844;8.966;2024-03-02T08:37:33;13.57;;;6.63;;
58384;SDS011;44185;47.844;8.966;2024-03-02T08:39:58;15.07;;;6.97;;
58384;SDS011;44185;47.844;8.966;2024-03-02T08:42:24;14.13;;;7.25;;
58384;SDS011;44185;47.844;8.966;2024-03-02T08:44:49;16.13;;;7.35;;
58384;SDS011;44185;47.844;8.966;2024-03-02T08:47:15;17.05;;;7.75;;
58384;SDS011;44185;47.844;8.966;2024-03-02T08:49:40;13.50;;;6.53;;
58384;SDS011;44185;47.844;8.966;2024-03-02T08:52:06;14.98;;;7.18;;
58384;SDS011;44185;47.844;8.966;2024-03-02T08:54:33;16.08;;;7.45;;
58384;SDS011;44185;47.844;8.966;2024-03-02T08:56:58;27.67;;;10.45;;
58384;SDS011;44185;47.844;8.966;2024-03-02T08:59:23;28.75;;;12.60;;
58384;SDS011;44185;47.844;8.966;2024-03-02T09:01:49;27.95;;;11.43;;
58384;SDS011;44185;47.844;8.966;2024-03-02T09:04:14;25.00;;;11.32;;
58384;SDS011;44185;47.844;8.966;2024-03-02T09:06:40;31.67;;;13.95;;
58384;SDS011;44185;47.844;8.966;2024-03-02T09:09:05;39.63;;;14.90;;
58384;SDS011;44185;47.844;8.966;2024-03-02T09:11:32;44.75;;;14.68;;
58384;SDS011;44185;47.844;8.966;2024-03-02T09:13:58;27.35;;;11.20;;
58384;SDS011;44185;47.844;8.966;2024-03-02T09:16:23;30.70;;;12.00;;
58384;SDS011;44185;47.844;8.966;2024-03-02T09:18:49;41.83;;;14.38;;
58384;SDS011;44185;47.844;8.966;2024-03-02T09:21:14;27.92;;;11.23;;
58384;SDS011;44185;47.844;8.966;2024-03-02T09:23:39;34.40;;;12.77;;
58384;SDS011;44185;47.844;8.966;2024-03-02T09:26:05;47.65;;;17.05;;
58384;SDS011;44185;47.844;8.966;2024-03-02T09:28:32;31.60;;;15.57;;
58384;SDS011;44185;47.844;8.966;2024-03-02T09:30:57;27.08;;;11.52;;
58384;SDS011;44185;47.844;8.966;2024-03-02T09:33:23;30.58;;;12.98;;
58384;SDS011;44185;47.844;8.966;2024-03-02T09:35:48;18.75;;;8.57;;
58384;SDS011;44185;47.844;8.966;2024-03-02T09:38:14;23.85;;;10.63;;
58384;SDS011;44185;47.844;8.966;2024-03-02T09:40:40;19.67;;;8.75;;
58384;SDS011;44185;47.844;8.966;2024-03-02T09:43:06;15.07;;;7.30;;
58384;SDS011;44185;47.844;8.966;2024-03-02T09:45:34;14.25;;;7.20;;
58384;SDS011;44185;47.844;8.966;2024-03-02T09:47:59;25.33;;;13.82;;
58384;SDS011;44185;47.844;8.966;2024-03-02T09:50:25;34.58;;;17.60;;
58384;SDS011;44185;47.844;8.966;2024-03-02T09:52:50;35.45;;;22.10;;
58384;SDS011;44185;47.844;8.966;2024-03-02T09:55:17;67.45;;;36.50;;
58384;SDS011;44185;47.844;8.966;2024-03-02T09:57:44;57.33;;;34.78;;
58384;SDS011;44185;47.844;8.966;2024-03-02T10:00:10;57.55;;;32.50;;
58384;SDS011;44185;47.844;8.966;2024-03-02T10:02:38;84.30;;;51.83;;
58384;SDS011;44185;47.844;8.966;2024-03-02T10:05:03;128.57;;;80.82;;
58384;SDS011;44185;47.844;8.966;2024-03-02T10:07:29;104.00;;;65.78;;
58384;SDS011;44185;47.844;8.966;2024-03-02T10:09:54;111.25;;;69.28;;
58384;SDS011;44185;47.844;8.966;2024-03-02T10:12:20;38.35;;;24.50;;
58384;SDS011;44185;47.844;8.966;2024-03-02T10:14:45;63.80;;;41.08;;
58384;SDS011;44185;47.844;8.966;2024-03-02T10:17:11;67.20;;;41.08;;
58384;SDS011;44185;47.844;8.966;2024-03-02T10:19:38;82.03;;;48.67;;
58384;SDS011;44185;47.844;8.966;2024-03-02T10:22:05;49.78;;;31.98;;
58384;SDS011;44185;47.844;8.966;2024-03-02T10:24:35;46.47;;;29.17;;
58384;SDS011;44185;47.844;8.966;2024-03-02T10:27:02;54.42;;;36.58;;
58384;SDS011;44185;47.844;8.966;2024-03-02T10:29:31;54.53;;;37.13;;
58384;SDS011;44185;47.844;8.966;2024-03-02T10:31:57;28.92;;;17.30;;
58384;SDS011;44185;47.844;8.966;2024-03-02T10:34:22;40.33;;;24.38;;
58384;SDS011;44185;47.844;8.966;2024-03-02T10:36:49;20.30;;;10.90;;
58384;SDS011;44185;47.844;8.966;2024-03-02T10:39:15;23.80;;;13.88;;
58384;SDS011;44185;47.844;8.966;2024-03-02T10:41:40;15.02;;;8.48;;
58384;SDS011;44185;47.844;8.966;2024-03-02T10:44:06;21.85;;;13.65;;
58384;SDS011;44185;47.844;8.966;2024-03-02T10:46:33;19.88;;;8.48;;
58384;SDS011;44185;47.844;8.966;2024-03-02T10:49:00;17.15;;;7.93;;
58384;SDS011;44185;47.844;8.966;2024-03-02T10:51:27;15.48;;;7.55;;
58384;SDS011;44185;47.844;8.966;2024-03-02T10:53:55;14.30;;;6.93;;
58384;SDS011;44185;47.844;8.966;2024-03-02T10:56:21;10.60;;;4.63;;
58384;SDS011;44185;47.844;8.966;2024-03-02T10:58:53;16.17;;;7.80;;
58384;SDS011;44185;47.844;8.966;2024-03-02T11:01:26;15.18;;;7.18;;
58384;SDS011;44185;47.844;8.966;2024-03-02T11:03:54;20.55;;;11.60;;
58384;SDS011;44185;47.844;8.966;2024-03-02T11:06:21;19.83;;;10.63;;
58384;SDS011;44185;47.844;8.966;2024-03-02T11:08:48;16.13;;;9.05;;
58384;SDS011;44185;47.844;8.966;2024-03-02T11:11:19;16.90;;;9.73;;
58384;SDS011;44185;47.844;8.966;2024-03-02T11:13:51;21.38;;;12.48;;
58384;SDS011;44185;47.844;8.966;2024-03-02T11:16:24;34.42;;;22.50;;
58384;SDS011;44185;47.844;8.966;2024-03-02T11:18:56;23.05;;;14.02;;
58384;SDS011;44185;47.844;8.966;2024-03-02T11:21:21;13.52;;;7.40;;
58384;SDS011;44185;47.844;8.966;2024-03-02T11:23:47;18.88;;;9.50;;
58384;SDS011;44185;47.844;8.966;2024-03-02T11:26:20;26.95;;;17.00;;
58384;SDS011;44185;47.844;8.966;2024-03-02T11:28:46;38.78;;;28.95;;
58384;SDS011;44185;47.844;8.966;2024-03-02T11:31:12;19.60;;;9.52;;
58384;SDS011;44185;47.844;8.966;2024-03-02T11:33:37;28.42;;;17.65;;
58384;SDS011;44185;47.844;8.966;2024-03-02T11:36:03;27.27;;;18.35;;
58384;SDS011;44185;47.844;8.966;2024-03-02T11:38:31;16.13;;;7.90;;
58384;SDS011;44185;47.844;8.966;2024-03-02T11:40:57;13.68;;;6.85;;
58384;SDS011;44185;47.844;8.966;2024-03-02T11:43:26;16.65;;;8.75;;
58384;SDS011;44185;47.844;8.966;2024-03-02T11:45:56;15.45;;;8.60;;
58384;SDS011;44185;47.844;8.966;2024-03-02T11:48:22;17.45;;;9.65;;
58384;SDS011;44185;47.844;8.966;2024-03-02T11:50:50;13.43;;;7.82;;
58384;SDS011;44185;47.844;8.966;2024-03-02T11:53:15;17.85;;;10.80;;
58384;SDS011;44185;47.844;8.966;2024-03-02T11:55:42;15.20;;;8.20;;
58384;SDS011;44185;47.844;8.966;2024-03-02T11:58:07;19.70;;;11.70;;
58384;SDS011;44185;47.844;8.966;2024-03-02T12:00:34;20.88;;;12.30;;
58384;SDS011;44185;47.844;8.966;2024-03-02T12:03:00;20.23;;;12.63;;
58384;SDS011;44185;47.844;8.966;2024-03-02T12:05:27;18.42;;;10.35;;
58384;SDS011;44185;47.844;8.966;2024-03-02T12:07:55;20.02;;;11.20;;
58384;SDS011;44185;47.844;8.966;2024-03-02T12:10:21;17.55;;;10.20;;
58384;SDS011;44185;47.844;8.966;2024-03-02T12:12:47;20.20;;;12.25;;
58384;SDS011;44185;47.844;8.966;2024-03-02T12:15:12;18.33;;;11.23;;
58384;SDS011;44185;47.844;8.966;2024-03-02T12:17:39;18.27;;;11.43;;
58384;SDS011;44185;47.844;8.966;2024-03-02T12:20:04;17.95;;;10.82;;
58384;SDS011;44185;47.844;8.966;2024-03-02T12:22:30;18.65;;;13.52;;
58384;SDS011;44185;47.844;8.966;2024-03-02T12:24:56;17.52;;;11.48;;
58384;SDS011;44185;47.844;8.966;2024-03-02T12:27:21;16.95;;;11.27;;
58384;SDS011;44185;47.844;8.966;2024-03-02T12:29:47;18.67;;;9.90;;
58384;SDS011;44185;47.844;8.966;2024-03-02T12:32:13;17.08;;;9.63;;
58384;SDS011;44185;47.844;8.966;2024-03-02T12:34:40;15.88;;;9.40;;
58384;SDS011;44185;47.844;8.966;2024-03-02T12:37:06;14.77;;;9.20;;
58384;SDS011;44185;47.844;8.966;2024-03-02T12:39:31;14.77;;;8.07;;
58384;SDS011;44185;47.844;8.966;2024-03-02T12:41:57;15.00;;;8.70;;
58384;SDS011;44185;47.844;8.966;2024-03-02T12:44:22;14.10;;;8.18;;
58384;SDS011;44185;47.844;8.966;2024-03-02T12:46:48;15.60;;;8.90;;
58384;SDS011;44185;47.844;8.966;2024-03-02T12:49:14;11.55;;;6.13;;
58384;SDS011;44185;47.844;8.966;2024-03-02T12:51:42;2.70;;;2.05;;
58384;SDS011;44185;47.844;8.966;2024-03-02T12:54:07;1.77;;;1.55;;
58384;SDS011;44185;47.844;8.966;2024-03-02T12:56:33;1.67;;;1.58;;
58384;SDS011;44185;47.844;8.966;2024-03-02T12:59:00;1.42;;;1.30;;
58384;SDS011;44185;47.844;8.966;2024-03-02T13:01:25;2.40;;;1.40;;
58384;SDS011;44185;47.844;8.966;2024-03-02T13:03:52;2.38;;;2.08;;
58384;SDS011;44185;47.844;8.966;2024-03-02T13:06:18;2.00;;;1.42;;
58384;SDS011;44185;47.844;8.966;2024-03-02T13:08:45;3.08;;;2.15;;
58384;SDS011;44185;47.844;8.966;2024-03-02T13:11:11;3.00;;;2.10;;
58384;SDS011;44185;47.844;8.966;2024-03-02T13:13:37;2.75;;;2.03;;
58384;SDS011;44185;47.844;8.966;2024-03-02T13:16:04;3.90;;;2.22;;
58384;SDS011;44185;47.844;8.966;2024-03-02T13:18:33;2.90;;;2.40;;
58384;SDS011;44185;47.844;8.966;2024-03-02T13:20:58;2.92;;;2.50;;
58384;SDS011;44185;47.844;8.966;2024-03-02T13:23:24;4.50;;;2.33;;
58384;SDS011;44185;47.844;8.966;2024-03-02T13:25:51;3.72;;;2.10;;
58384;SDS011;44185;47.844;8.966;2024-03-02T13:28:16;1.95;;;1.75;;
58384;SDS011;44185;47.844;8.966;2024-03-02T13:30:42;2.90;;;1.88;;
58384;SDS011;44185;47.844;8.966;2024-03-02T13:33:07;5.13;;;2.33;;
58384;SDS011;44185;47.844;8.966;2024-03-02T13:35:33;1.92;;;1.52;;
58384;SDS011;44185;47.844;8.966;2024-03-02T13:37:58;3.28;;;2.10;;
58384;SDS011;44185;47.844;8.966;2024-03-02T13:40:24;2.60;;;2.20;;
58384;SDS011;44185;47.844;8.966;2024-03-02T13:42:51;1.85;;;1.65;;
58384;SDS011;44185;47.844;8.966;2024-03-02T13:45:16;3.33;;;2.17;;
58384;SDS011;44185;47.844;8.966;2024-03-02T13:47:42;2.53;;;2.20;;
58384;SDS011;44185;47.844;8.966;2024-03-02T13:50:07;3.63;;;2.45;;
58384;SDS011;44185;47.844;8.966;2024-03-02T13:52:33;3.83;;;2.33;;
58384;SDS011;44185;47.844;8.966;2024-03-02T13:54:59;2.50;;;1.90;;
58384;SDS011;44185;47.844;8.966;2024-03-02T13:57:24;3.47;;;2.20;;
58384;SDS011;44185;47.844;8.966;2024-03-02T13:59:51;3.83;;;2.05;;
58384;SDS011;44185;47.844;8.966;2024-03-02T14:02:16;2.08;;;1.83;;
58384;SDS011;44185;47.844;8.966;2024-03-02T14:04:42;2.80;;;1.85;;
58384;SDS011;44185;47.844;8.966;2024-03-02T14:07:07;1.73;;;1.60;;
58384;SDS011;44185;47.844;8.966;2024-03-02T14:09:33;1.83;;;1.40;;
58384;SDS011;44185;47.844;8.966;2024-03-02T14:11:58;1.58;;;1.45;;
58384;SDS011;44185;47.844;8.966;2024-03-02T14:14:24;1.48;;;1.38;;
58384;SDS011;44185;47.844;8.966;2024-03-02T14:16:51;2.28;;;1.70;;
58384;SDS011;44185;47.844;8.966;2024-03-02T14:19:16;2.00;;;1.60;;
58384;SDS011;44185;47.844;8.966;2024-03-02T14:21:42;1.80;;;1.55;;
58384;SDS011;44185;47.844;8.966;2024-03-02T14:24:07;3.58;;;2.00;;
58384;SDS011;44185;47.844;8.966;2024-03-02T14:26:33;4.00;;;2.60;;
58384;SDS011;44185;47.844;8.966;2024-03-02T14:28:59;4.88;;;2.80;;